sensor_id;sensor_type;location;lat;lon;timestamp;P1;durP1;ratioP1;P2;durP2;ratioP2
15915;SDS011;8057;47.830;-3.870;2023-08-01T00:00:41;6.40;;;3.50;;
15915;SDS011;8057;47.830;-3.870;2023-08-01T00:04:51;7.50;;;3.90;;
15915;SDS011;8057;47.830;-3.870;2023-08-01T00:09:00;4.67;;;3.03;;
15915;SDS011;8057;47.830;-3.870;2023-08-01T00:13:09;4.37;;;3.10;;
15915;SDS011;8057;47.830;-3.870;2023-08-01T00:17:19;8.10;;;3.57;;
15915;SDS011;8057;47.830;-3.870;2023-08-01T00:21:29;7.90;;;3.87;;
15915;SDS011;8057;47.830;-3.870;2023-08-01T00:25:39;6.20;;;3.63;;
15915;SDS011;8057;47.830;-3.870;2023-08-01T00:29:48;5.07;;;3.27;;
15915;SDS011;8057;47.830;-3.870;2023-08-01T00:33:58;7.20;;;3.67;;
15915;SDS011;8057;47.830;-3.870;2023-08-01T00:38:07;9.50;;;4.00;;
15915;SDS011;8057;47.830;-3.870;2023-08-01T00:42:16;6.63;;;3.70;;
15915;SDS011;8057;47.830;-3.870;2023-08-01T00:46:25;10.20;;;4.13;;
15915;SDS011;8057;47.830;-3.870;2023-08-01T00:50:36;6.20;;;3.47;;
15915;SDS011;8057;47.830;-3.870;2023-08-01T00:54:46;8.77;;;3.73;;
15915;SDS011;8057;47.830;-3.870;2023-08-01T00:58:55;7.27;;;4.10;;
15915;SDS011;8057;47.830;-3.870;2023-08-01T01:03:04;7.53;;;4.03;;
15915;SDS011;8057;47.830;-3.870;2023-08-01T01:07:15;6.33;;;3.50;;
15915;SDS011;8057;47.830;-3.870;2023-08-01T01:11:25;5.70;;;3.50;;
15915;SDS011;8057;47.830;-3.870;2023-08-01T01:15:34;10.43;;;4.03;;
15915;SDS011;8057;47.830;-3.870;2023-08-01T01:19:43;5.83;;;3.20;;
15915;SDS011;8057;47.830;-3.870;2023-08-01T01:23:54;8.67;;;3.90;;
15915;SDS011;8057;47.830;-3.870;2023-08-01T01:28:04;5.30;;;3.63;;
15915;SDS011;8057;47.830;-3.870;2023-08-01T01:32:15;10.60;;;4.50;;
15915;SDS011;8057;47.830;-3.870;2023-08-01T01:36:25;9.73;;;4.60;;
15915;SDS011;8057;47.830;-3.870;2023-08-01T01:40:35;10.13;;;3.97;;
15915;SDS011;8057;47.830;-3.870;2023-08-01T01:44:44;9.57;;;5.03;;
15915;SDS011;8057;47.830;-3.870;2023-08-01T01:48:53;9.57;;;4.07;;
15915;SDS011;8057;47.830;-3.870;2023-08-01T01:53:04;11.30;;;4.67;;
15915;SDS011;8057;47.830;-3.870;2023-08-01T01:57:15;13.47;;;4.87;;
15915;SDS011;8057;47.830;-3.870;2023-08-01T02:01:24;16.07;;;4.80;;
15915;SDS011;8057;47.830;-3.870;2023-08-01T02:05:33;12.37;;;4.90;;
15915;SDS011;8057;47.830;-3.870;2023-08-01T02:09:42;13.20;;;4.53;;
15915;SDS011;8057;47.830;-3.870;2023-08-01T02:13:53;15.07;;;5.07;;
15915;SDS011;8057;47.830;-3.870;2023-08-01T02:18:02;13.33;;;5.00;;
15915;SDS011;8057;47.830;-3.870;2023-08-01T02:22:11;15.03;;;4.40;;
15915;SDS011;8057;47.830;-3.870;2023-08-01T02:26:20;15.23;;;5.37;;
15915;SDS011;8057;47.830;-3.870;2023-08-01T02:30:32;11.83;;;4.87;;
15915;SDS011;8057;47.830;-3.870;2023-08-01T02:34:41;12.70;;;4.63;;
15915;SDS011;8057;47.830;-3.870;2023-08-01T02:38:50;15.23;;;5.07;;
15915;SDS011;8057;47.830;-3.870;2023-08-01T02:42:59;14.87;;;5.47;;
15915;SDS011;8057;47.830;-3.870;2023-08-01T02:47:10;14.73;;;4.83;;
15915;SDS011;8057;47.830;-3.870;2023-08-01T02:51:19;15.40;;;5.13;;
15915;SDS011;8057;47.830;-3.870;2023-08-01T02:55:28;14.70;;;5.60;;
15915;SDS011;8057;47.830;-3.870;2023-08-01T02:59:37;12.73;;;5.53;;
15915;SDS011;8057;47.830;-3.870;2023-08-01T03:03:48;18.57;;;5.77;;
15915;SDS011;8057;47.830;-3.870;2023-08-01T03:07:57;17.10;;;4.93;;
15915;SDS011;8057;47.830;-3.870;2023-08-01T03:12:06;13.93;;;5.20;;
15915;SDS011;8057;47.830;-3.870;2023-08-01T03:16:15;17.70;;;5.60;;
15915;SDS011;8057;47.830;-3.870;2023-08-01T03:20:26;14.50;;;5.07;;
15915;SDS011;8057;47.830;-3.870;2023-08-01T03:24:35;15.33;;;5.47;;
15915;SDS011;8057;47.830;-3.870;2023-08-01T03:28:44;12.67;;;5.30;;
15915;SDS011;8057;47.830;-3.870;2023-08-01T03:32:53;13.60;;;5.63;;
15915;SDS011;8057;47.830;-3.870;2023-08-01T03:37:04;14.20;;;5.13;;
15915;SDS011;8057;47.830;-3.870;2023-08-01T03:41:13;10.80;;;5.67;;
15915;SDS011;8057;47.830;-3.870;2023-08-01T03:45:22;12.40;;;6.17;;
15915;SDS011;8057;47.830;-3.870;2023-08-01T03:49:31;10.97;;;5.10;;
15915;SDS011;8057;47.830;-3.870;2023-08-01T03:53:42;11.43;;;5.73;;
15915;SDS011;8057;47.830;-3.870;2023-08-01T03:57:59;12.27;;;5.60;;
15915;SDS011;8057;47.830;-3.870;2023-08-01T04:02:08;13.83;;;5.60;;
15915;SDS011;8057;47.830;-3.870;2023-08-01T04:06:17;12.77;;;5.20;;
15915;SDS011;8057;47.830;-3.870;2023-08-01T04:10:27;15.13;;;5.73;;
15915;SDS011;8057;47.830;-3.870;2023-08-01T04:14:36;14.83;;;5.27;;
15915;SDS011;8057;47.830;-3.870;2023-08-01T04:18:45;13.23;;;5.67;;
15915;SDS011;8057;47.830;-3.870;2023-08-01T04:22:54;16.03;;;6.27;;
15915;SDS011;8057;47.830;-3.870;2023-08-01T04:27:05;18.57;;;5.47;;
15915;SDS011;8057;47.830;-3.870;2023-08-01T04:31:14;12.60;;;5.43;;
15915;SDS011;8057;47.830;-3.870;2023-08-01T04:35:23;16.40;;;5.87;;
15915;SDS011;8057;47.830;-3.870;2023-08-01T04:39:32;11.47;;;5.43;;
15915;SDS011;8057;47.830;-3.870;2023-08-01T04:43:43;16.03;;;5.40;;
15915;SDS011;8057;47.830;-3.870;2023-08-01T04:47:52;15.97;;;5.97;;
15915;SDS011;8057;47.830;-3.870;2023-08-01T04:52:01;11.87;;;5.97;;
15915;SDS011;8057;47.830;-3.870;2023-08-01T04:56:13;13.73;;;5.20;;
15915;SDS011;8057;47.830;-3.870;2023-08-01T05:00:24;12.53;;;5.40;;
15915;SDS011;8057;47.830;-3.870;2023-08-01T05:04:33;13.70;;;6.33;;
15915;SDS011;8057;47.830;-3.870;2023-08-01T05:08:42;12.67;;;5.23;;
15915;SDS011;8057;47.830;-3.870;2023-08-01T05:12:51;12.87;;;5.73;;
15915;SDS011;8057;47.830;-3.870;2023-08-01T05:17:01;11.60;;;5.73;;
15915;SDS011;8057;47.830;-3.870;2023-08-01T05:21:10;19.00;;;6.53;;
15915;SDS011;8057;47.830;-3.870;2023-08-01T05:25:20;16.57;;;6.90;;
15915;SDS011;8057;47.830;-3.870;2023-08-01T05:29:29;17.87;;;6.83;;
15915;SDS011;8057;47.830;-3.870;2023-08-01T05:33:39;15.87;;;6.27;;
15915;SDS011;8057;47.830;-3.870;2023-08-01T05:37:48;11.30;;;6.10;;
15915;SDS011;8057;47.830;-3.870;2023-08-01T05:41:57;13.57;;;6.73;;
15915;SDS011;8057;47.830;-3.870;2023-08-01T05:46:06;13.53;;;6.40;;
15915;SDS011;8057;47.830;-3.870;2023-08-01T05:50:17;12.10;;;6.47;;
15915;SDS011;8057;47.830;-3.870;2023-08-01T05:54:26;15.40;;;6.40;;
15915;SDS011;8057;47.830;-3.870;2023-08-01T05:58:35;12.90;;;5.93;;
15915;SDS011;8057;47.830;-3.870;2023-08-01T06:02:44;15.47;;;6.23;;
15915;SDS011;8057;47.830;-3.870;2023-08-01T06:06:55;13.27;;;6.13;;
15915;SDS011;8057;47.830;-3.870;2023-08-01T06:11:04;16.70;;;6.13;;
15915;SDS011;8057;47.830;-3.870;2023-08-01T06:15:13;12.37;;;5.50;;
15915;SDS011;8057;47.830;-3.870;2023-08-01T06:19:22;11.97;;;6.27;;
15915;SDS011;8057;47.830;-3.870;2023-08-01T06:23:33;14.53;;;6.43;;
15915;SDS011;8057;47.830;-3.870;2023-08-01T06:27:42;11.20;;;5.87;;
15915;SDS011;8057;47.830;-3.870;2023-08-01T06:31:51;15.60;;;6.43;;
15915;SDS011;8057;47.830;-3.870;2023-08-01T06:36:00;13.57;;;5.40;;
15915;SDS011;8057;47.830;-3.870;2023-08-01T06:40:11;14.30;;;5.47;;
15915;SDS011;8057;47.830;-3.870;2023-08-01T06:44:20;10.50;;;6.10;;
15915;SDS011;8057;47.830;-3.870;2023-08-01T06:48:29;10.30;;;5.80;;
15915;SDS011;8057;47.830;-3.870;2023-08-01T06:52:41;12.07;;;6.40;;
15915;SDS011;8057;47.830;-3.870;2023-08-01T06:56:51;10.63;;;5.90;;
15915;SDS011;8057;47.830;-3.870;2023-08-01T07:01:00;11.33;;;6.20;;
15915;SDS011;8057;47.830;-3.870;2023-08-01T07:05:10;11.00;;;6.10;;
15915;SDS011;8057;47.830;-3.870;2023-08-01T07:09:19;11.53;;;6.23;;
15915;SDS011;8057;47.830;-3.870;2023-08-01T07:13:30;12.77;;;5.90;;
15915;SDS011;8057;47.830;-3.870;2023-08-01T07:17:39;14.07;;;6.27;;
15915;SDS011;8057;47.830;-3.870;2023-08-01T07:21:48;10.90;;;6.00;;
15915;SDS011;8057;47.830;-3.870;2023-08-01T07:25:57;15.30;;;5.80;;
15915;SDS011;8057;47.830;-3.870;2023-08-01T07:30:08;10.57;;;5.43;;
15915;SDS011;8057;47.830;-3.870;2023-08-01T07:34:18;9.97;;;5.60;;
15915;SDS011;8057;47.830;-3.870;2023-08-01T07:38:27;12.70;;;6.10;;
15915;SDS011;8057;47.830;-3.870;2023-08-01T07:42:38;15.20;;;5.57;;
15915;SDS011;8057;47.830;-3.870;2023-08-01T07:46:49;13.27;;;5.93;;
15915;SDS011;8057;47.830;-3.870;2023-08-01T07:50:58;12.67;;;6.17;;
15915;SDS011;8057;47.830;-3.870;2023-08-01T07:55:07;13.70;;;5.90;;
15915;SDS011;8057;47.830;-3.870;2023-08-01T07:59:16;14.37;;;6.00;;
15915;SDS011;8057;47.830;-3.870;2023-08-01T08:03:27;16.53;;;6.03;;
15915;SDS011;8057;47.830;-3.870;2023-08-01T08:07:36;14.07;;;5.90;;
15915;SDS011;8057;47.830;-3.870;2023-08-01T08:11:45;13.67;;;6.07;;
15915;SDS011;8057;47.830;-3.870;2023-08-01T08:15:55;14.50;;;6.17;;
15915;SDS011;8057;47.830;-3.870;2023-08-01T08:20:07;12.83;;;5.97;;
15915;SDS011;8057;47.830;-3.870;2023-08-01T08:24:16;11.03;;;6.07;;
15915;SDS011;8057;47.830;-3.870;2023-08-01T08:28:28;12.07;;;5.27;;
15915;SDS011;8057;47.830;-3.870;2023-08-01T08:32:39;10.80;;;4.97;;
15915;SDS011;8057;47.830;-3.870;2023-08-01T08:36:50;12.10;;;5.07;;
15915;SDS011;8057;47.830;-3.870;2023-08-01T08:41:03;12.80;;;5.63;;
15915;SDS011;8057;47.830;-3.870;2023-08-01T08:45:17;7.90;;;4.97;;
15915;SDS011;8057;47.830;-3.870;2023-08-01T08:49:27;10.60;;;5.57;;
15915;SDS011;8057;47.830;-3.870;2023-08-01T08:53:38;12.60;;;6.57;;
15915;SDS011;8057;47.830;-3.870;2023-08-01T08:57:49;17.13;;;5.90;;
15915;SDS011;8057;47.830;-3.870;2023-08-01T09:01:59;10.17;;;5.37;;
15915;SDS011;8057;47.830;-3.870;2023-08-01T09:06:11;13.57;;;5.07;;
15915;SDS011;8057;47.830;-3.870;2023-08-01T09:10:24;12.47;;;6.07;;
15915;SDS011;8057;47.830;-3.870;2023-08-01T09:14:33;10.97;;;5.00;;
15915;SDS011;8057;47.830;-3.870;2023-08-01T09:18:51;7.97;;;5.20;;
15915;SDS011;8057;47.830;-3.870;2023-08-01T09:23:01;13.73;;;5.73;;
15915;SDS011;8057;47.830;-3.870;2023-08-01T09:27:11;11.50;;;5.43;;
15915;SDS011;8057;47.830;-3.870;2023-08-01T09:31:25;10.47;;;5.57;;
15915;SDS011;8057;47.830;-3.870;2023-08-01T09:35:38;13.63;;;5.80;;
15915;SDS011;8057;47.830;-3.870;2023-08-01T09:39:52;13.60;;;5.63;;
15915;SDS011;8057;47.830;-3.870;2023-08-01T09:44:04;15.33;;;5.73;;
15915;SDS011;8057;47.830;-3.870;2023-08-01T09:48:20;13.47;;;5.87;;
15915;SDS011;8057;47.830;-3.870;2023-08-01T09:52:34;13.27;;;5.43;;
15915;SDS011;8057;47.830;-3.870;2023-08-01T09:56:43;7.93;;;5.23;;
15915;SDS011;8057;47.830;-3.870;2023-08-01T10:00:55;12.90;;;5.50;;
15915;SDS011;8057;47.830;-3.870;2023-08-01T10:05:04;14.27;;;5.60;;
15915;SDS011;8057;47.830;-3.870;2023-08-01T10:09:15;9.57;;;4.97;;
15915;SDS011;8057;47.830;-3.870;2023-08-01T10:13:25;12.60;;;5.07;;
15915;SDS011;8057;47.830;-3.870;2023-08-01T10:17:38;13.63;;;5.87;;
15915;SDS011;8057;47.830;-3.870;2023-08-01T10:21:47;14.30;;;6.20;;
15915;SDS011;8057;47.830;-3.870;2023-08-01T10:26:01;14.87;;;5.40;;
15915;SDS011;8057;47.830;-3.870;2023-08-01T10:30:13;11.50;;;5.67;;
15915;SDS011;8057;47.830;-3.870;2023-08-01T10:34:24;16.47;;;5.67;;
15915;SDS011;8057;47.830;-3.870;2023-08-01T10:38:33;14.10;;;5.63;;
15915;SDS011;8057;47.830;-3.870;2023-08-01T10:42:54;9.93;;;5.03;;
15915;SDS011;8057;47.830;-3.870;2023-08-01T10:47:03;11.97;;;5.10;;
15915;SDS011;8057;47.830;-3.870;2023-08-01T10:51:15;11.90;;;5.23;;
15915;SDS011;8057;47.830;-3.870;2023-08-01T10:55:24;14.20;;;5.53;;
15915;SDS011;8057;47.830;-3.870;2023-08-01T10:59:33;13.10;;;4.83;;
15915;SDS011;8057;47.830;-3.870;2023-08-01T11:03:43;13.43;;;5.63;;
15915;SDS011;8057;47.830;-3.870;2023-08-01T11:07:57;12.97;;;5.40;;
15915;SDS011;8057;47.830;-3.870;2023-08-01T11:12:07;13.33;;;5.50;;
15915;SDS011;8057;47.830;-3.870;2023-08-01T11:16:16;13.93;;;5.67;;
15915;SDS011;8057;47.830;-3.870;2023-08-01T11:20:25;14.47;;;5.47;;
15915;SDS011;8057;47.830;-3.870;2023-08-01T11:24:37;10.80;;;5.03;;
15915;SDS011;8057;47.830;-3.870;2023-08-01T11:28:46;15.27;;;5.63;;
15915;SDS011;8057;47.830;-3.870;2023-08-01T11:32:55;10.80;;;4.83;;
15915;SDS011;8057;47.830;-3.870;2023-08-01T11:37:05;10.73;;;4.30;;
15915;SDS011;8057;47.830;-3.870;2023-08-01T11:41:15;11.73;;;5.47;;
15915;SDS011;8057;47.830;-3.870;2023-08-01T11:45:25;11.53;;;5.50;;
15915;SDS011;8057;47.830;-3.870;2023-08-01T11:49:34;9.47;;;5.10;;
15915;SDS011;8057;47.830;-3.870;2023-08-01T11:53:43;12.33;;;5.67;;
15915;SDS011;8057;47.830;-3.870;2023-08-01T11:57:56;14.00;;;5.87;;
15915;SDS011;8057;47.830;-3.870;2023-08-01T12:02:06;16.33;;;6.07;;
15915;SDS011;8057;47.830;-3.870;2023-08-01T12:06:15;13.43;;;6.33;;
15915;SDS011;8057;47.830;-3.870;2023-08-01T12:10:26;12.43;;;5.40;;
15915;SDS011;8057;47.830;-3.870;2023-08-01T12:14:47;10.60;;;5.60;;
15915;SDS011;8057;47.830;-3.870;2023-08-01T12:18:56;14.00;;;5.77;;
15915;SDS011;8057;47.830;-3.870;2023-08-01T12:23:07;15.40;;;6.47;;
15915;SDS011;8057;47.830;-3.870;2023-08-01T12:27:16;13.53;;;6.13;;
15915;SDS011;8057;47.830;-3.870;2023-08-01T12:31:27;14.07;;;6.40;;
15915;SDS011;8057;47.830;-3.870;2023-08-01T12:35:38;14.87;;;6.00;;
15915;SDS011;8057;47.830;-3.870;2023-08-01T12:39:48;16.53;;;6.23;;
15915;SDS011;8057;47.830;-3.870;2023-08-01T12:43:58;13.57;;;7.23;;
15915;SDS011;8057;47.830;-3.870;2023-08-01T12:48:08;14.13;;;6.93;;
15915;SDS011;8057;47.830;-3.870;2023-08-01T12:52:22;18.53;;;6.23;;
15915;SDS011;8057;47.830;-3.870;2023-08-01T12:56:31;14.03;;;7.03;;
15915;SDS011;8057;47.830;-3.870;2023-08-01T13:00:40;14.50;;;6.90;;
15915;SDS011;8057;47.830;-3.870;2023-08-01T13:04:53;13.83;;;7.00;;
15915;SDS011;8057;47.830;-3.870;2023-08-01T13:09:02;17.37;;;7.03;;
15915;SDS011;8057;47.830;-3.870;2023-08-01T13:13:11;15.23;;;7.70;;
15915;SDS011;8057;47.830;-3.870;2023-08-01T13:17:21;16.03;;;6.63;;
15915;SDS011;8057;47.830;-3.870;2023-08-01T13:21:32;14.90;;;6.90;;
15915;SDS011;8057;47.830;-3.870;2023-08-01T13:25:41;16.73;;;7.27;;
15915;SDS011;8057;47.830;-3.870;2023-08-01T13:29:53;16.63;;;7.60;;
15915;SDS011;8057;47.830;-3.870;2023-08-01T13:34:02;15.57;;;6.63;;
15915;SDS011;8057;47.830;-3.870;2023-08-01T13:38:13;21.50;;;7.73;;
15915;SDS011;8057;47.830;-3.870;2023-08-01T13:42:24;13.67;;;7.10;;
15915;SDS011;8057;47.830;-3.870;2023-08-01T13:46:33;13.97;;;7.17;;
15915;SDS011;8057;47.830;-3.870;2023-08-01T13:50:42;16.70;;;7.67;;
15915;SDS011;8057;47.830;-3.870;2023-08-01T13:54:53;14.57;;;7.33;;
15915;SDS011;8057;47.830;-3.870;2023-08-01T13:59:03;17.47;;;7.43;;
15915;SDS011;8057;47.830;-3.870;2023-08-01T14:03:12;16.93;;;7.70;;
15915;SDS011;8057;47.830;-3.870;2023-08-01T14:07:21;17.10;;;7.83;;
15915;SDS011;8057;47.830;-3.870;2023-08-01T14:11:32;18.43;;;8.47;;
15915;SDS011;8057;47.830;-3.870;2023-08-01T14:15:41;20.43;;;7.63;;
15915;SDS011;8057;47.830;-3.870;2023-08-01T14:19:50;14.60;;;7.80;;
15915;SDS011;8057;47.830;-3.870;2023-08-01T14:23:59;20.43;;;8.47;;
15915;SDS011;8057;47.830;-3.870;2023-08-01T14:28:10;14.83;;;7.50;;
15915;SDS011;8057;47.830;-3.870;2023-08-01T14:32:19;15.77;;;7.87;;
15915;SDS011;8057;47.830;-3.870;2023-08-01T14:36:29;14.00;;;6.83;;
15915;SDS011;8057;47.830;-3.870;2023-08-01T14:40:38;16.00;;;7.77;;
15915;SDS011;8057;47.830;-3.870;2023-08-01T14:44:54;15.70;;;7.83;;
15915;SDS011;8057;47.830;-3.870;2023-08-01T14:49:04;20.13;;;8.37;;
15915;SDS011;8057;47.830;-3.870;2023-08-01T14:53:13;19.57;;;8.47;;
15915;SDS011;8057;47.830;-3.870;2023-08-01T14:57:22;18.50;;;8.33;;
15915;SDS011;8057;47.830;-3.870;2023-08-01T15:01:33;15.67;;;7.53;;
15915;SDS011;8057;47.830;-3.870;2023-08-01T15:05:42;17.87;;;8.10;;
15915;SDS011;8057;47.830;-3.870;2023-08-01T15:09:51;14.20;;;7.00;;
15915;SDS011;8057;47.830;-3.870;2023-08-01T15:14:02;17.33;;;7.53;;
15915;SDS011;8057;47.830;-3.870;2023-08-01T15:18:13;15.83;;;7.40;;
15915;SDS011;8057;47.830;-3.870;2023-08-01T15:22:23;21.17;;;7.63;;
15915;SDS011;8057;47.830;-3.870;2023-08-01T15:26:32;16.50;;;7.47;;
15915;SDS011;8057;47.830;-3.870;2023-08-01T15:30:41;13.07;;;7.07;;
15915;SDS011;8057;47.830;-3.870;2023-08-01T15:34:52;13.53;;;7.13;;
15915;SDS011;8057;47.830;-3.870;2023-08-01T15:39:02;11.53;;;6.43;;
15915;SDS011;8057;47.830;-3.870;2023-08-01T15:43:12;11.23;;;6.80;;
15915;SDS011;8057;47.830;-3.870;2023-08-01T15:47:21;10.73;;;6.87;;
15915;SDS011;8057;47.830;-3.870;2023-08-01T15:51:32;12.80;;;6.77;;
15915;SDS011;8057;47.830;-3.870;2023-08-01T15:55:41;15.33;;;7.73;;
15915;SDS011;8057;47.830;-3.870;2023-08-01T15:59:51;14.20;;;6.87;;
15915;SDS011;8057;47.830;-3.870;2023-08-01T16:04:00;10.47;;;6.70;;
15915;SDS011;8057;47.830;-3.870;2023-08-01T16:08:10;11.70;;;5.83;;
15915;SDS011;8057;47.830;-3.870;2023-08-01T16:12:20;7.73;;;4.97;;
15915;SDS011;8057;47.830;-3.870;2023-08-01T16:16:30;7.67;;;5.17;;
15915;SDS011;8057;47.830;-3.870;2023-08-01T16:20:39;6.80;;;4.57;;
15915;SDS011;8057;47.830;-3.870;2023-08-01T16:24:50;5.87;;;3.70;;
15915;SDS011;8057;47.830;-3.870;2023-08-01T16:28:59;6.77;;;4.37;;
15915;SDS011;8057;47.830;-3.870;2023-08-01T16:33:08;6.60;;;3.93;;
15915;SDS011;8057;47.830;-3.870;2023-08-01T16:37:18;7.43;;;4.27;;
15915;SDS011;8057;47.830;-3.870;2023-08-01T16:41:29;8.17;;;5.13;;
15915;SDS011;8057;47.830;-3.870;2023-08-01T16:45:39;10.80;;;6.40;;
15915;SDS011;8057;47.830;-3.870;2023-08-01T16:49:53;16.97;;;7.47;;
15915;SDS011;8057;47.830;-3.870;2023-08-01T16:54:02;14.27;;;8.97;;
15915;SDS011;8057;47.830;-3.870;2023-08-01T16:58:13;16.77;;;9.77;;
15915;SDS011;8057;47.830;-3.870;2023-08-01T17:02:22;16.60;;;10.20;;
15915;SDS011;8057;47.830;-3.870;2023-08-01T17:06:32;14.57;;;10.53;;
15915;SDS011;8057;47.830;-3.870;2023-08-01T17:10:41;15.47;;;11.77;;
15915;SDS011;8057;47.830;-3.870;2023-08-01T17:14:52;13.40;;;11.27;;
15915;SDS011;8057;47.830;-3.870;2023-08-01T17:19:01;15.03;;;11.67;;
15915;SDS011;8057;47.830;-3.870;2023-08-01T17:23:10;13.80;;;11.63;;
15915;SDS011;8057;47.830;-3.870;2023-08-01T17:27:19;13.43;;;10.33;;
15915;SDS011;8057;47.830;-3.870;2023-08-01T17:31:30;15.33;;;10.93;;
15915;SDS011;8057;47.830;-3.870;2023-08-01T17:35:41;12.07;;;9.70;;
15915;SDS011;8057;47.830;-3.870;2023-08-01T17:39:50;13.00;;;10.10;;
15915;SDS011;8057;47.830;-3.870;2023-08-01T17:43:59;10.87;;;9.67;;
15915;SDS011;8057;47.830;-3.870;2023-08-01T17:48:10;12.97;;;9.43;;
15915;SDS011;8057;47.830;-3.870;2023-08-01T17:52:19;12.27;;;9.43;;
15915;SDS011;8057;47.830;-3.870;2023-08-01T17:56:28;13.60;;;9.53;;
15915;SDS011;8057;47.830;-3.870;2023-08-01T18:00:38;9.93;;;8.80;;
15915;SDS011;8057;47.830;-3.870;2023-08-01T18:04:48;11.63;;;9.40;;
15915;SDS011;8057;47.830;-3.870;2023-08-01T18:08:57;9.93;;;8.90;;
15915;SDS011;8057;47.830;-3.870;2023-08-01T18:13:07;9.27;;;8.27;;
15915;SDS011;8057;47.830;-3.870;2023-08-01T18:17:16;10.90;;;8.00;;
15915;SDS011;8057;47.830;-3.870;2023-08-01T18:21:28;7.57;;;6.67;;
15915;SDS011;8057;47.830;-3.870;2023-08-01T18:25:37;7.87;;;7.17;;
15915;SDS011;8057;47.830;-3.870;2023-08-01T18:29:46;9.40;;;6.57;;
15915;SDS011;8057;47.830;-3.870;2023-08-01T18:33:58;6.90;;;6.10;;
15915;SDS011;8057;47.830;-3.870;2023-08-01T18:38:09;10.53;;;6.57;;
15915;SDS011;8057;47.830;-3.870;2023-08-01T18:42:18;10.03;;;6.27;;
15915;SDS011;8057;47.830;-3.870;2023-08-01T18:46:27;9.70;;;5.70;;
15915;SDS011;8057;47.830;-3.870;2023-08-01T18:50:37;16.63;;;6.17;;
15915;SDS011;8057;47.830;-3.870;2023-08-01T18:54:50;15.60;;;6.13;;
15915;SDS011;8057;47.830;-3.870;2023-08-01T18:58:59;18.30;;;7.07;;
15915;SDS011;8057;47.830;-3.870;2023-08-01T19:03:08;19.13;;;7.17;;
15915;SDS011;8057;47.830;-3.870;2023-08-01T19:07:18;28.00;;;8.00;;
15915;SDS011;8057;47.830;-3.870;2023-08-01T19:11:29;28.17;;;8.37;;
15915;SDS011;8057;47.830;-3.870;2023-08-01T19:15:39;26.47;;;8.30;;
15915;SDS011;8057;47.830;-3.870;2023-08-01T19:19:48;27.13;;;7.73;;
15915;SDS011;8057;47.830;-3.870;2023-08-01T19:23:58;23.33;;;8.77;;
15915;SDS011;8057;47.830;-3.870;2023-08-01T19:28:10;27.93;;;8.50;;
15915;SDS011;8057;47.830;-3.870;2023-08-01T19:32:19;32.17;;;10.03;;
15915;SDS011;8057;47.830;-3.870;2023-08-01T19:36:28;31.40;;;9.03;;
15915;SDS011;8057;47.830;-3.870;2023-08-01T19:40:39;39.97;;;9.37;;
15915;SDS011;8057;47.830;-3.870;2023-08-01T19:44:52;35.97;;;9.70;;
15915;SDS011;8057;47.830;-3.870;2023-08-01T19:49:01;34.20;;;8.77;;
15915;SDS011;8057;47.830;-3.870;2023-08-01T19:53:11;31.67;;;10.53;;
15915;SDS011;8057;47.830;-3.870;2023-08-01T19:57:20;35.30;;;10.13;;
15915;SDS011;8057;47.830;-3.870;2023-08-01T20:01:30;35.63;;;9.60;;
15915;SDS011;8057;47.830;-3.870;2023-08-01T20:05:39;40.70;;;10.60;;
15915;SDS011;8057;47.830;-3.870;2023-08-01T20:09:48;42.53;;;10.97;;
15915;SDS011;8057;47.830;-3.870;2023-08-01T20:13:57;40.10;;;10.50;;
15915;SDS011;8057;47.830;-3.870;2023-08-01T20:18:08;42.60;;;10.60;;
15915;SDS011;8057;47.830;-3.870;2023-08-01T20:22:19;43.70;;;10.73;;
15915;SDS011;8057;47.830;-3.870;2023-08-01T20:26:35;39.00;;;11.00;;
15915;SDS011;8057;47.830;-3.870;2023-08-01T20:30:52;47.07;;;11.03;;
